Antrim, New Hampshire
Current Conditions -  °F | °C
As of 11:52 PM on Friday 31 Oct 2014 (Local Time) from KAFN Reporting Station
Broken Clouds Broken Clouds  
Wind Chill: 38°   Ceiling: 6000
Heat Index: 38°   Visibility: 10mi
Dew Point: 34°   Wind: 0mph
Humidity: 86%   Direction: NA
Pressure: 29.97"   Gusts: NA
Location:  43.03°N, 71.95°W
Report Text: KAFN 010352Z AUTO 00000KT 10SM BKN060 03/01 A2997 RMK AO2 SLP160 T00330011
Loading
Personal Weather Stations






























Interactive Weather Map
Tropical Storm Tracking
New forecast layout! Learn more

10-Day Weather Forecast

Advertisements
Track Severe Weather on mobile